Hauptseite
METAR-TAF:

METAR-TAF

Flughäfen :

Flughafen Mauritius

Mauritius, Mauritius

Breite: 20-26S, Länge: 057-40E, Höhe: 55 m

Beobachtung

Neuester Wetterbericht von vor 1 Stunde und 3 Minuten, um 18:00 UTC
Wind 7 kt aus Südwest
Temperatur 23°C
Luftfeuchtigkeit 65%
Luftdruck 1020 hPa
Sichtweite 10 km oder mehr
Leicht bewölkt in der Höhe von 1900 ft
Durchbrochene Bewölkung in der Höhe von 25000 ft

METAR: FIMP 231800Z 22007KT 9999 FEW019 BKN250 23/16 Q1020

Zeit: 23:03 (19:03 UTC)

Prognose

Neuester Wetterbericht von vor 1 Stunde und 33 Minuten, um 17:30 UTC
Gültige Prognose vom 23 um 18 UTC bis 25 um 00 UTC
Wind 10 kt aus Südwest, Böen bis zu 20 kt
Sichtweite 10 km oder mehr
Aufgelockert bewölkt in der Höhe von 1700 ft
Übergehend zu
vom 24 um 02 UTC bis 24 um 04 UTC
Wind 15 kt aus Süd, Böen bis zu 25 kt

TAF: FIMP 231730Z 2318/2500 22010G20KT 9999 SCT017 BECMG 2402/2404 18015G25KT

Wetterbeobachtungen und Prognosen von mehr als 4000 Flughäfen (METAR und TAF Bericht).

Die verfügbaren Stationen werden durch gelbe und rote Markierungen auf der Karte dargestellt.

Führen Sie die Maus auf sie, um den Namen der Station zu sehen.

Darauf klicken, um die Beobachtung von Wetterbeobachtungen und Prognosen zu sehen.

Um die Karte zu ändern : klicken Sie auf den grünen Tasten mit einem schwarzen Kreuz Zum Vergrößern, auf den grünen Button mit einem Gedankenstrich zu verkleinern, oder auf die grünen Pfeile für benachbarte Karten.


METAR-TAF: